createdAt,value
2023-05-17T00:00:58.531Z,3.72
2023-05-17T00:03:28.172Z,3.50
2023-05-17T00:05:56.008Z,3.72
2023-05-17T00:08:23.743Z,3.75
2023-05-17T00:10:52.140Z,4.93
2023-05-17T00:13:19.979Z,3.88
2023-05-17T00:15:47.678Z,5.13
2023-05-17T00:18:15.400Z,5.03
2023-05-17T00:20:44.454Z,4.50
2023-05-17T00:23:12.163Z,4.82
2023-05-17T00:25:39.800Z,4.63
2023-05-17T00:28:07.451Z,6.18
2023-05-17T00:30:35.309Z,4.82
2023-05-17T00:33:03.129Z,3.65
2023-05-17T00:35:30.986Z,3.85
2023-05-17T00:38:00.146Z,4.68
2023-05-17T00:40:27.853Z,5.22
2023-05-17T00:42:55.760Z,4.72
2023-05-17T00:45:23.527Z,4.70
2023-05-17T00:47:51.337Z,4.45
2023-05-17T00:50:19.243Z,5.57
2023-05-17T00:52:47.252Z,4.72
2023-05-17T00:55:17.127Z,4.80
2023-05-17T00:57:44.911Z,4.53
2023-05-17T01:00:13.127Z,7.10
2023-05-17T01:02:40.852Z,5.25
2023-05-17T01:05:08.778Z,4.60
2023-05-17T01:07:36.438Z,5.35
2023-05-17T01:10:04.256Z,4.57
2023-05-17T01:12:43.320Z,4.90
2023-05-17T01:15:14.534Z,5.35
2023-05-17T01:17:46.466Z,5.47
2023-05-17T01:20:16.329Z,4.88
2023-05-17T01:22:52.334Z,4.50
2023-05-17T01:25:30.567Z,5.25
2023-05-17T01:28:00.545Z,5.97
2023-05-17T01:30:29.883Z,5.15
2023-05-17T01:32:59.087Z,6.00
2023-05-17T01:35:27.348Z,4.07
2023-05-17T01:37:55.420Z,6.90
2023-05-17T01:40:24.319Z,6.03
2023-05-17T01:42:54.453Z,4.72
2023-05-17T01:45:25.662Z,4.72
2023-05-17T01:47:57.723Z,5.57
2023-05-17T01:50:26.470Z,5.13
2023-05-17T01:52:56.155Z,5.88
2023-05-17T01:55:27.930Z,5.90
2023-05-17T01:57:57.480Z,5.13
2023-05-17T02:00:27.790Z,5.10
2023-05-17T02:02:55.607Z,5.55
2023-05-17T02:05:23.515Z,5.40
2023-05-17T02:07:51.195Z,6.57
2023-05-17T02:10:20.513Z,5.00
2023-05-17T02:12:52.502Z,5.88
2023-05-17T02:15:22.059Z,5.70
2023-05-17T02:17:51.324Z,4.97
2023-05-17T02:20:19.118Z,5.63
2023-05-17T02:22:46.779Z,5.32
2023-05-17T02:25:14.467Z,5.47
2023-05-17T02:27:42.106Z,4.90
2023-05-17T02:30:10.080Z,5.15
2023-05-17T02:35:34.752Z,5.87
2023-05-17T02:38:02.409Z,5.72
2023-05-17T02:40:30.140Z,4.68
2023-05-17T02:42:58.373Z,5.55
2023-05-17T02:45:26.656Z,4.55
2023-05-17T02:47:54.860Z,6.20
2023-05-17T02:50:23.937Z,5.05
2023-05-17T02:52:53.103Z,4.88
2023-05-17T02:55:23.957Z,5.00
2023-05-17T02:57:51.721Z,5.60
2023-05-17T03:00:19.676Z,6.63
2023-05-17T03:02:47.440Z,7.13
2023-05-17T03:05:15.157Z,6.25
2023-05-17T03:07:42.811Z,5.75
2023-05-17T03:10:12.103Z,6.60
2023-05-17T03:12:39.889Z,6.07
2023-05-17T03:15:07.970Z,7.25
2023-05-17T03:17:35.795Z,6.55
2023-05-17T03:20:04.596Z,6.85
2023-05-17T03:22:32.264Z,6.75
2023-05-17T03:25:00.016Z,5.65
2023-05-17T03:27:31.011Z,6.82
2023-05-17T03:29:58.749Z,5.50
2023-05-17T03:32:26.375Z,6.80
2023-05-17T03:34:54.332Z,6.20
2023-05-17T03:37:21.985Z,6.05
2023-05-17T03:39:49.627Z,6.53
2023-05-17T03:42:17.323Z,6.88
2023-05-17T03:44:46.397Z,5.72
2023-05-17T03:47:14.073Z,6.18
2023-05-17T03:49:41.810Z,6.15
2023-05-17T03:52:09.782Z,5.80
2023-05-17T03:54:37.649Z,7.78
2023-05-17T03:57:05.527Z,7.03
2023-05-17T03:59:33.221Z,7.72
2023-05-17T04:02:02.274Z,5.97
2023-05-17T04:04:30.089Z,5.60
2023-05-17T04:06:57.931Z,6.25
2023-05-17T04:09:25.798Z,6.95
2023-05-17T04:11:54.412Z,6.50
2023-05-17T04:14:22.477Z,6.05
2023-05-17T04:16:50.459Z,5.35
2023-05-17T04:19:19.785Z,6.75
2023-05-17T04:21:47.524Z,7.43
2023-05-17T04:24:15.235Z,6.65
2023-05-17T04:26:42.956Z,7.10
2023-05-17T04:29:10.644Z,8.38
2023-05-17T04:31:38.982Z,6.13
2023-05-17T04:34:06.762Z,7.03
2023-05-17T04:36:36.203Z,6.90
2023-05-17T04:39:06.004Z,5.22
2023-05-17T04:41:33.780Z,6.03
2023-05-17T04:44:01.618Z,5.82
2023-05-17T04:46:29.786Z,5.78
2023-05-17T04:49:06.765Z,6.32
2023-05-17T04:51:35.925Z,6.38
2023-05-17T04:54:06.992Z,7.47
2023-05-17T04:56:35.695Z,7.25
2023-05-17T04:59:03.816Z,6.60
2023-05-17T05:01:31.940Z,6.53
2023-05-17T05:04:00.003Z,6.45
2023-05-17T05:06:27.838Z,6.22
2023-05-17T05:08:56.877Z,7.03
2023-05-17T05:11:24.839Z,6.80
2023-05-17T05:13:52.636Z,6.55
2023-05-17T05:16:20.400Z,8.20
2023-05-17T05:18:48.354Z,7.10
2023-05-17T05:21:16.240Z,7.30
2023-05-17T05:23:44.094Z,7.75
2023-05-17T05:26:13.102Z,8.50
2023-05-17T05:28:40.908Z,7.90
2023-05-17T05:31:08.901Z,7.18
2023-05-17T05:33:36.835Z,7.45
2023-05-17T05:36:04.753Z,6.90
2023-05-17T05:38:32.512Z,7.03
2023-05-17T05:41:00.172Z,6.47
2023-05-17T05:43:29.168Z,7.68
2023-05-17T05:45:56.802Z,6.95
2023-05-17T05:48:24.723Z,7.82
2023-05-17T05:50:52.595Z,6.95
2023-05-17T05:53:20.425Z,7.07
2023-05-17T05:55:49.464Z,6.75
2023-05-17T05:58:17.243Z,5.72
2023-05-17T06:00:46.461Z,6.70
2023-05-17T06:03:14.202Z,7.25
2023-05-17T06:05:42.029Z,6.57
2023-05-17T06:08:09.783Z,6.75
2023-05-17T06:10:37.467Z,7.30
2023-05-17T06:13:05.233Z,7.30
2023-05-17T06:15:33.065Z,5.43
2023-05-17T06:18:02.201Z,5.60
2023-05-17T06:20:30.161Z,6.43
2023-05-17T06:22:58.134Z,5.65
2023-05-17T06:25:25.822Z,5.78
2023-05-17T06:27:53.511Z,5.82
2023-05-17T06:30:23.442Z,5.68
2023-05-17T06:32:51.325Z,5.10
2023-05-17T06:35:20.664Z,5.70
2023-05-17T06:37:48.783Z,5.68
2023-05-17T06:40:17.250Z,5.53
2023-05-17T06:42:46.876Z,5.32
2023-05-17T06:45:14.969Z,4.25
2023-05-17T06:47:42.851Z,4.25
2023-05-17T06:50:10.945Z,5.57
2023-05-17T06:52:39.991Z,5.05
2023-05-17T06:55:09.341Z,4.78
2023-05-17T06:57:37.371Z,4.63
2023-05-17T07:00:06.925Z,4.72
2023-05-17T07:02:34.968Z,4.20
2023-05-17T07:05:02.861Z,5.72
2023-05-17T07:07:30.661Z,4.03
2023-05-17T07:09:59.678Z,4.90
2023-05-17T07:12:27.542Z,4.43
2023-05-17T07:14:55.230Z,4.45
2023-05-17T07:17:22.946Z,3.72
2023-05-17T07:19:51.269Z,4.63
2023-05-17T07:22:19.082Z,3.60
2023-05-17T07:24:46.848Z,4.03
2023-05-17T07:27:15.893Z,3.88
2023-05-17T07:29:43.650Z,4.40
2023-05-17T07:32:11.432Z,4.32
2023-05-17T07:34:41.546Z,3.50
2023-05-17T07:37:09.320Z,4.07
2023-05-17T07:39:36.969Z,3.60
2023-05-17T07:42:05.629Z,4.50
2023-05-17T07:44:34.939Z,6.65
2023-05-17T07:47:02.670Z,5.85
2023-05-17T07:49:31.695Z,6.30
2023-05-17T07:52:00.412Z,5.50
2023-05-17T07:54:28.740Z,4.90
2023-05-17T07:56:56.666Z,5.70
2023-05-17T07:59:24.369Z,5.10
2023-05-17T08:01:53.830Z,4.60
2023-05-17T08:04:21.657Z,4.93
2023-05-17T08:06:50.178Z,5.53
2023-05-17T08:09:18.085Z,5.32
2023-05-17T08:11:46.888Z,6.32
2023-05-17T08:14:15.137Z,6.15
2023-05-17T08:16:42.965Z,5.80
2023-05-17T08:19:14.137Z,6.50
2023-05-17T08:21:42.177Z,7.50
2023-05-17T08:24:10.530Z,9.32
2023-05-17T08:26:38.184Z,8.82
2023-05-17T08:29:07.261Z,9.68
2023-05-17T08:31:35.638Z,8.65
2023-05-17T08:34:03.508Z,10.90
2023-05-17T08:36:32.704Z,8.25
2023-05-17T08:39:00.374Z,9.02
2023-05-17T08:41:28.361Z,8.27
2023-05-17T08:43:56.932Z,10.20
2023-05-17T08:46:25.407Z,9.07
2023-05-17T08:48:59.989Z,10.10
2023-05-17T08:51:28.011Z,10.10
2023-05-17T08:53:57.434Z,9.27
2023-05-17T08:56:26.992Z,8.35
2023-05-17T08:58:57.938Z,9.05
2023-05-17T09:01:27.925Z,10.10
2023-05-17T09:03:57.057Z,10.52
2023-05-17T09:06:25.134Z,9.65
2023-05-17T09:08:53.749Z,9.88
2023-05-17T09:11:33.011Z,8.25
2023-05-17T09:14:01.537Z,8.35
2023-05-17T09:16:29.636Z,8.02
2023-05-17T09:18:57.942Z,9.00
2023-05-17T09:21:26.188Z,10.07
2023-05-17T09:24:05.423Z,9.98
2023-05-17T09:26:42.132Z,8.93
2023-05-17T09:29:11.012Z,8.30
2023-05-17T09:31:39.109Z,7.93
2023-05-17T09:34:08.131Z,7.70
2023-05-17T09:36:36.754Z,7.15
2023-05-17T09:39:05.903Z,7.53
2023-05-17T09:41:33.850Z,7.15
2023-05-17T09:44:03.847Z,5.95
2023-05-17T09:46:34.371Z,6.13
2023-05-17T09:49:03.259Z,5.97
2023-05-17T09:51:35.246Z,4.53
2023-05-17T09:54:03.057Z,4.85
2023-05-17T09:56:31.135Z,3.55
2023-05-17T09:59:00.884Z,4.15
2023-05-17T10:01:30.917Z,3.90
2023-05-17T10:04:00.705Z,4.10
2023-05-17T10:06:44.583Z,4.20
2023-05-17T10:11:43.075Z,3.92
2023-05-17T10:14:12.455Z,4.40
2023-05-17T10:16:43.145Z,4.88
2023-05-17T10:19:12.383Z,3.85
2023-05-17T10:21:42.397Z,4.72
2023-05-17T10:24:11.318Z,3.38
2023-05-17T10:26:39.376Z,2.65
2023-05-17T10:29:07.252Z,4.15
2023-05-17T10:31:36.551Z,3.42
2023-05-17T10:34:06.868Z,2.20
2023-05-17T10:36:35.113Z,4.03
2023-05-17T10:39:03.061Z,2.85
2023-05-17T10:41:33.208Z,2.78
2023-05-17T10:44:08.524Z,2.15
2023-05-17T10:46:37.496Z,3.90
2023-05-17T10:49:07.246Z,3.05
2023-05-17T10:51:36.459Z,3.20
2023-05-17T10:54:09.741Z,3.13
2023-05-17T10:56:40.285Z,3.42
2023-05-17T10:59:47.490Z,2.33
2023-05-17T11:02:15.638Z,2.60
2023-05-17T11:04:52.741Z,1.90
2023-05-17T11:07:27.930Z,1.65
2023-05-17T11:12:33.518Z,2.22
2023-05-17T11:15:02.200Z,2.38
2023-05-17T11:17:35.483Z,2.40
2023-05-17T11:20:10.446Z,1.98
2023-05-17T11:22:41.182Z,2.05
2023-05-17T11:25:09.863Z,1.70
2023-05-17T11:27:38.558Z,1.90
2023-05-17T11:30:10.650Z,2.72
2023-05-17T11:32:38.438Z,1.45
2023-05-17T11:35:07.854Z,3.17
2023-05-17T11:37:35.663Z,2.03
2023-05-17T11:40:05.020Z,1.73
2023-05-17T11:42:33.910Z,1.63
2023-05-17T11:45:02.875Z,1.80
2023-05-17T11:47:31.393Z,1.50
2023-05-17T11:50:01.724Z,1.08
2023-05-17T11:52:31.517Z,1.10
2023-05-17T11:54:59.675Z,1.42
2023-05-17T11:57:30.900Z,1.48
2023-05-17T12:00:02.422Z,1.60
2023-05-17T12:02:30.647Z,1.98
2023-05-17T12:04:58.542Z,2.05
2023-05-17T12:07:26.822Z,1.73
2023-05-17T12:09:55.845Z,1.80
2023-05-17T12:12:23.698Z,2.03
2023-05-17T12:14:52.378Z,1.77
2023-05-17T12:17:26.692Z,2.58
2023-05-17T12:19:55.404Z,2.10
2023-05-17T12:22:23.232Z,2.58
2023-05-17T12:24:51.051Z,2.10
2023-05-17T12:27:28.027Z,1.08
2023-05-17T12:29:56.457Z,1.90
2023-05-17T12:32:24.952Z,1.90
2023-05-17T12:34:52.968Z,1.52
2023-05-17T12:37:20.769Z,1.40
2023-05-17T12:39:48.525Z,1.95
2023-05-17T12:42:16.244Z,1.98
2023-05-17T12:44:46.118Z,2.22
2023-05-17T12:47:14.161Z,1.80
2023-05-17T12:49:52.798Z,1.70
2023-05-17T12:52:20.469Z,1.63
2023-05-17T12:54:49.239Z,1.50
2023-05-17T12:57:20.121Z,1.85
2023-05-17T12:59:50.238Z,1.50
2023-05-17T13:02:18.377Z,2.45
2023-05-17T13:04:46.554Z,2.55
2023-05-17T13:07:22.037Z,1.83
2023-05-17T13:09:49.858Z,1.63
2023-05-17T13:12:21.583Z,2.47
2023-05-17T13:14:54.929Z,2.08
2023-05-17T13:17:26.107Z,2.17
2023-05-17T13:19:54.293Z,1.90
2023-05-17T13:22:22.145Z,1.67
2023-05-17T13:24:49.906Z,1.30
2023-05-17T13:27:18.087Z,1.55
2023-05-17T13:29:45.966Z,1.60
2023-05-17T13:32:19.550Z,2.38
2023-05-17T13:34:47.631Z,2.47
2023-05-17T13:37:15.435Z,1.80
2023-05-17T13:39:43.432Z,1.73
2023-05-17T13:42:13.454Z,1.55
2023-05-17T13:44:41.884Z,2.80
2023-05-17T13:47:09.621Z,1.23
2023-05-17T13:49:38.624Z,1.33
2023-05-17T13:52:08.753Z,1.33
2023-05-17T13:54:37.011Z,2.30
2023-05-17T13:57:05.599Z,1.30
2023-05-17T13:59:33.305Z,1.60
2023-05-17T14:02:01.280Z,1.48
2023-05-17T14:04:28.941Z,1.33
2023-05-17T14:06:58.232Z,1.55
2023-05-17T14:09:25.937Z,1.45
2023-05-17T14:11:53.619Z,1.10
2023-05-17T14:14:21.360Z,1.40
2023-05-17T14:16:49.074Z,1.45
2023-05-17T14:19:16.808Z,1.17
2023-05-17T14:21:47.397Z,1.27
2023-05-17T14:24:16.411Z,2.25
2023-05-17T14:26:44.247Z,1.50
2023-05-17T14:29:12.012Z,1.30
2023-05-17T14:31:39.686Z,1.50
2023-05-17T14:34:08.281Z,1.35
2023-05-17T14:36:36.862Z,1.20
2023-05-17T14:39:05.453Z,1.60
2023-05-17T14:41:34.524Z,0.98
2023-05-17T14:44:02.187Z,1.10
2023-05-17T14:46:29.892Z,1.27
2023-05-17T14:48:57.662Z,1.23
2023-05-17T14:51:25.388Z,1.10
2023-05-17T14:53:54.259Z,1.00
2023-05-17T14:56:22.312Z,1.65
2023-05-17T14:58:51.384Z,1.27
2023-05-17T15:01:19.304Z,1.08
2023-05-17T15:03:50.025Z,1.70
2023-05-17T15:06:17.773Z,1.33
2023-05-17T15:08:45.716Z,1.58
2023-05-17T15:11:14.179Z,1.50
2023-05-17T15:13:42.746Z,1.50
2023-05-17T15:16:12.191Z,1.52
2023-05-17T15:18:39.913Z,1.33
2023-05-17T15:21:07.647Z,1.70
2023-05-17T15:23:35.529Z,1.15
2023-05-17T15:26:03.169Z,1.23
2023-05-17T15:28:31.204Z,1.33
2023-05-17T15:31:03.817Z,1.60
2023-05-17T15:33:33.181Z,1.38
2023-05-17T15:36:00.919Z,1.40
2023-05-17T15:38:28.624Z,1.90
2023-05-17T15:41:02.766Z,1.05
2023-05-17T15:43:30.926Z,1.42
2023-05-17T15:45:58.574Z,1.20
2023-05-17T15:48:29.053Z,1.25
2023-05-17T15:50:58.840Z,1.60
2023-05-17T15:53:27.118Z,2.28
2023-05-17T15:55:54.792Z,1.02
2023-05-17T15:58:23.184Z,1.13
2023-05-17T16:00:51.002Z,1.30
2023-05-17T16:03:18.652Z,1.05
2023-05-17T16:05:46.587Z,1.40
2023-05-17T16:08:16.014Z,1.02
2023-05-17T16:10:46.752Z,1.45
2023-05-17T16:13:14.542Z,1.13
2023-05-17T16:15:42.289Z,0.98
2023-05-17T16:18:10.905Z,1.40
2023-05-17T16:20:38.794Z,1.30
2023-05-17T16:23:06.896Z,1.27
2023-05-17T16:25:36.620Z,1.95
2023-05-17T16:28:04.458Z,1.60
2023-05-17T16:30:32.111Z,1.60
2023-05-17T16:33:00.043Z,1.27
2023-05-17T16:36:02.164Z,1.40
2023-05-17T16:38:29.980Z,1.15
2023-05-17T16:41:03.046Z,1.73
2023-05-17T16:43:32.504Z,1.92
2023-05-17T16:46:02.877Z,2.30
2023-05-17T16:48:30.819Z,1.92
2023-05-17T16:50:59.530Z,1.73
2023-05-17T16:53:28.216Z,1.40
2023-05-17T16:55:56.030Z,1.75
2023-05-17T16:58:26.157Z,1.65
2023-05-17T17:00:54.242Z,1.20
2023-05-17T17:03:22.177Z,1.15
2023-05-17T17:05:49.960Z,1.98
2023-05-17T17:08:17.889Z,1.52
2023-05-17T17:10:45.902Z,1.17
2023-05-17T17:13:17.616Z,1.30
2023-05-17T17:16:18.954Z,2.00
2023-05-17T17:18:49.676Z,1.50
2023-05-17T17:21:17.597Z,3.03
2023-05-17T17:23:46.082Z,2.17
2023-05-17T17:26:13.775Z,1.30
2023-05-17T17:28:41.531Z,1.70
2023-05-17T17:31:09.306Z,2.10
2023-05-17T17:33:37.514Z,2.17
2023-05-17T17:36:08.995Z,6.68
2023-05-17T17:38:36.693Z,1.80
2023-05-17T17:41:04.409Z,2.67
2023-05-17T17:43:32.095Z,1.90
2023-05-17T17:46:00.482Z,3.05
2023-05-17T17:48:28.288Z,2.60
2023-05-17T17:50:57.364Z,4.10
2023-05-17T17:53:26.739Z,2.42
2023-05-17T17:55:54.643Z,1.70
2023-05-17T17:58:22.542Z,17.83
2023-05-17T18:00:50.276Z,1.95
2023-05-17T18:03:18.131Z,1.75
2023-05-17T18:05:46.493Z,1.70
2023-05-17T18:08:14.613Z,1.73
2023-05-17T18:10:43.685Z,1.85
2023-05-17T18:13:12.082Z,1.10
2023-05-17T18:15:40.465Z,1.40
2023-05-17T18:18:11.134Z,1.58
2023-05-17T18:20:40.098Z,1.85
2023-05-17T18:23:08.087Z,1.77
2023-05-17T18:25:36.693Z,1.77
2023-05-17T18:28:08.688Z,1.52
2023-05-17T18:30:36.599Z,1.40
2023-05-17T18:33:06.882Z,1.60
2023-05-17T18:35:34.751Z,1.60
2023-05-17T18:38:02.408Z,2.30
2023-05-17T18:40:30.454Z,1.33
2023-05-17T18:42:58.839Z,1.65
2023-05-17T18:45:27.945Z,1.52
2023-05-17T18:48:06.348Z,2.13
2023-05-17T18:50:34.237Z,2.20
2023-05-17T18:53:01.966Z,1.67
2023-05-17T18:55:29.751Z,1.80
2023-05-17T18:57:58.546Z,2.78
2023-05-17T19:00:27.648Z,2.17
2023-05-17T19:02:57.386Z,2.47
2023-05-17T19:05:25.133Z,2.03
2023-05-17T19:07:52.792Z,2.05
2023-05-17T19:10:21.632Z,2.00
2023-05-17T19:12:50.033Z,1.80
2023-05-17T19:15:17.825Z,2.08
2023-05-17T19:17:46.968Z,1.88
2023-05-17T19:20:19.258Z,1.90
2023-05-17T19:22:46.933Z,1.92
2023-05-17T19:25:16.541Z,3.20
2023-05-17T19:27:45.136Z,1.90
2023-05-17T19:30:13.320Z,2.25
2023-05-17T19:32:41.199Z,1.83
2023-05-17T19:35:11.261Z,1.73
2023-05-17T19:37:38.975Z,2.10
2023-05-17T19:40:07.309Z,3.22
2023-05-17T19:42:35.772Z,2.30
2023-05-17T19:45:03.828Z,1.73
2023-05-17T19:47:31.844Z,2.15
2023-05-17T19:49:59.643Z,1.75
2023-05-17T19:52:28.758Z,3.03
2023-05-17T19:54:57.418Z,2.60
2023-05-17T19:57:25.251Z,1.77
2023-05-17T19:59:52.990Z,1.60
2023-05-17T20:02:21.029Z,1.60
2023-05-17T20:04:48.800Z,1.60
2023-05-17T20:07:17.489Z,1.58
2023-05-17T20:09:46.573Z,1.52
2023-05-17T20:12:14.708Z,2.75
2023-05-17T20:14:42.422Z,2.15
2023-05-17T20:17:10.558Z,2.08
2023-05-17T20:19:38.575Z,1.65
2023-05-17T20:22:06.550Z,1.67
2023-05-17T20:24:34.908Z,2.28
2023-05-17T20:27:03.952Z,2.28
2023-05-17T20:29:31.787Z,1.92
2023-05-17T20:32:00.088Z,1.80
2023-05-17T20:34:29.417Z,1.45
2023-05-17T20:36:57.349Z,2.30
2023-05-17T20:39:28.037Z,2.08
2023-05-17T20:41:56.889Z,2.80
2023-05-17T20:44:26.271Z,1.90
2023-05-17T20:46:54.007Z,1.60
2023-05-17T20:49:21.659Z,1.58
2023-05-17T20:51:49.368Z,2.22
2023-05-17T20:54:17.592Z,2.83
2023-05-17T20:56:45.450Z,2.28
2023-05-17T20:59:14.683Z,2.00
2023-05-17T21:01:43.766Z,2.45
2023-05-17T21:04:14.816Z,2.58
2023-05-17T21:06:46.100Z,2.10
2023-05-17T21:09:15.535Z,2.08
2023-05-17T21:11:44.155Z,2.30
2023-05-17T21:14:11.981Z,2.58
2023-05-17T21:16:39.829Z,3.05
2023-05-17T21:19:09.787Z,2.40
2023-05-17T21:21:37.949Z,2.00
2023-05-17T21:24:05.994Z,1.50
2023-05-17T21:26:36.335Z,2.92
2023-05-17T21:29:06.172Z,3.10
2023-05-17T21:31:33.873Z,2.40
2023-05-17T21:34:01.780Z,2.80
2023-05-17T21:36:31.482Z,2.65
2023-05-17T21:38:59.218Z,2.55
2023-05-17T21:41:27.089Z,2.92
2023-05-17T21:43:54.754Z,2.67
2023-05-17T21:46:22.644Z,3.15
2023-05-17T21:48:50.370Z,2.72
2023-05-17T21:51:18.074Z,2.28
2023-05-17T21:53:47.399Z,2.22
2023-05-17T21:56:15.077Z,2.95
2023-05-17T21:58:44.890Z,2.90
2023-05-17T22:01:12.823Z,2.97
2023-05-17T22:03:40.740Z,2.50
2023-05-17T22:06:35.307Z,2.17
2023-05-17T22:09:06.161Z,3.15
2023-05-17T22:11:38.287Z,2.83
2023-05-17T22:14:07.538Z,2.95
2023-05-17T22:16:35.387Z,2.58
2023-05-17T22:19:06.160Z,2.38
2023-05-17T22:21:34.104Z,2.75
2023-05-17T22:24:02.012Z,2.40
2023-05-17T22:26:31.050Z,2.35
2023-05-17T22:28:58.732Z,2.13
2023-05-17T22:31:26.453Z,3.78
2023-05-17T22:33:54.865Z,2.47
2023-05-17T22:36:24.880Z,1.90
2023-05-17T22:38:54.780Z,3.50
2023-05-17T22:41:22.466Z,2.60
2023-05-17T22:43:54.243Z,3.13
2023-05-17T22:46:22.887Z,2.80
2023-05-17T22:48:53.873Z,3.50
2023-05-17T22:51:22.570Z,4.25
2023-05-17T22:53:50.226Z,2.50
2023-05-17T22:56:18.005Z,2.92
2023-05-17T22:58:45.740Z,2.47
2023-05-17T23:01:14.838Z,3.15
2023-05-17T23:03:42.599Z,3.10
2023-05-17T23:06:10.368Z,3.15
2023-05-17T23:08:39.055Z,2.78
2023-05-17T23:11:06.837Z,2.80
2023-05-17T23:13:36.361Z,1.90
2023-05-17T23:16:04.365Z,2.70
2023-05-17T23:18:33.496Z,3.15
2023-05-17T23:21:01.251Z,3.10
2023-05-17T23:23:29.988Z,2.92
2023-05-17T23:25:57.675Z,2.72
2023-05-17T23:28:25.414Z,3.13
2023-05-17T23:30:54.095Z,3.20
2023-05-17T23:33:21.777Z,2.85
2023-05-17T23:35:51.224Z,3.30
2023-05-17T23:38:18.861Z,3.50
2023-05-17T23:40:46.594Z,2.95
2023-05-17T23:43:14.681Z,3.03
2023-05-17T23:45:42.517Z,4.18
2023-05-17T23:48:10.709Z,3.22
2023-05-17T23:50:38.860Z,2.92
2023-05-17T23:53:09.864Z,6.53
2023-05-17T23:55:38.679Z,2.97
2023-05-17T23:58:06.540Z,3.05
